createdAt,value
2022-12-08T00:02:06.431Z,101574.72
2022-12-08T00:04:54.096Z,101579.19
2022-12-08T00:07:40.405Z,101585.31
2022-12-08T00:10:39.826Z,101578.34
2022-12-08T00:12:56.188Z,101594.19
2022-12-08T00:15:23.889Z,101590.84
2022-12-08T00:17:51.467Z,101592.47
2022-12-08T00:20:18.967Z,101574.91
2022-12-08T00:22:46.676Z,101581.84
2022-12-08T00:25:14.850Z,101569.56
2022-12-08T00:27:42.440Z,101571.28
2022-12-08T00:30:10.727Z,101570.38
2022-12-08T00:32:38.446Z,101560.78
2022-12-08T00:35:06.341Z,101566.81
2022-12-08T00:37:34.100Z,101560.66
2022-12-08T00:40:01.991Z,101554.50
2022-12-08T00:42:29.967Z,101558.06
2022-12-08T00:44:57.607Z,101547.66
2022-12-08T00:47:25.275Z,101546.78
2022-12-08T00:49:52.771Z,101550.16
2022-12-08T00:52:20.538Z,101543.97
2022-12-08T00:54:48.557Z,101539.56
2022-12-08T00:57:16.045Z,101547.47
2022-12-08T00:59:43.572Z,101543.97
2022-12-08T01:02:11.220Z,101546.59
2022-12-08T01:04:39.132Z,101550.94
2022-12-08T01:07:06.677Z,101556.19
2022-12-08T01:09:34.189Z,101540.53
2022-12-08T01:12:01.814Z,101537.03
2022-12-08T01:14:29.341Z,101544.06
2022-12-08T01:16:57.077Z,101541.50
2022-12-08T01:19:24.768Z,101548.50
2022-12-08T01:21:52.310Z,101546.81
2022-12-08T01:24:21.345Z,101534.56
2022-12-08T01:26:50.873Z,101547.75
2022-12-08T01:29:18.566Z,101539.09
2022-12-08T01:31:46.052Z,101540.06
2022-12-08T01:34:13.557Z,101534.97
2022-12-08T01:36:42.512Z,101539.41
2022-12-08T01:39:19.971Z,101547.38
2022-12-08T01:41:47.929Z,101543.97
2022-12-08T01:44:15.390Z,101538.81
2022-12-08T01:46:45.547Z,101535.41
2022-12-08T01:49:18.015Z,101537.22
2022-12-08T01:51:57.275Z,101535.63
2022-12-08T01:54:29.169Z,101537.50
2022-12-08T01:57:06.444Z,101535.94
2022-12-08T01:59:38.910Z,101539.63
2022-12-08T02:02:06.384Z,101539.75
2022-12-08T02:04:34.061Z,101541.59
2022-12-08T02:07:07.804Z,101539.97
2022-12-08T02:09:37.731Z,101534.88
2022-12-08T02:12:05.605Z,101540.31
2022-12-08T02:14:34.503Z,101532.72
2022-12-08T02:17:49.267Z,101529.44
2022-12-08T02:20:42.309Z,101528.72
2022-12-08T02:23:24.243Z,101534.06
2022-12-08T02:26:09.837Z,101534.91
2022-12-08T02:29:25.151Z,101533.97
2022-12-08T02:32:23.908Z,101521.69
2022-12-08T02:34:57.477Z,101509.50
2022-12-08T02:37:41.086Z,101505.19
2022-12-08T02:40:27.360Z,101509.59
2022-12-08T02:43:20.273Z,101502.78
2022-12-08T02:45:57.096Z,101501.19
2022-12-08T02:48:28.444Z,101496.94
2022-12-08T02:50:56.465Z,101496.25
2022-12-08T02:53:24.003Z,101495.50
2022-12-08T02:56:09.667Z,101484.34
2022-12-08T02:59:00.299Z,101472.38
2022-12-08T03:01:37.471Z,101482.19
2022-12-08T03:04:22.567Z,101489.31
2022-12-08T03:07:24.688Z,101492.94
2022-12-08T03:10:03.602Z,101479.06
2022-12-08T03:12:48.639Z,101467.06
2022-12-08T03:15:19.809Z,101462.00
2022-12-08T03:17:53.375Z,101462.97
2022-12-08T03:20:27.943Z,101463.94
2022-12-08T03:22:57.521Z,101460.47
2022-12-08T03:25:30.549Z,101461.31
2022-12-08T03:27:59.821Z,101453.50
2022-12-08T03:30:31.907Z,101457.06
2022-12-08T03:33:06.268Z,101465.91
2022-12-08T03:35:37.003Z,101457.38
2022-12-08T03:38:13.647Z,101447.88
2022-12-08T03:40:41.546Z,101446.16
2022-12-08T03:43:09.440Z,101448.88
2022-12-08T03:45:37.142Z,101452.44
2022-12-08T03:48:04.707Z,101451.66
2022-12-08T03:50:32.540Z,101463.03
2022-12-08T03:53:00.088Z,101444.56
2022-12-08T03:55:27.773Z,101429.63
2022-12-08T03:57:55.237Z,101439.25
2022-12-08T04:00:23.052Z,101423.69
2022-12-08T04:02:50.655Z,101413.34
2022-12-08T04:05:18.220Z,101415.09
2022-12-08T04:07:45.748Z,101403.78
2022-12-08T04:10:13.363Z,101394.16
2022-12-08T04:12:40.850Z,101388.84
2022-12-08T04:15:09.130Z,101399.34
2022-12-08T04:17:36.618Z,101398.56
2022-12-08T04:20:04.745Z,101395.94
2022-12-08T04:22:32.529Z,101391.53
2022-12-08T04:25:00.199Z,101384.53
2022-12-08T04:27:27.745Z,101388.00
2022-12-08T04:29:55.217Z,101397.63
2022-12-08T04:32:22.678Z,101389.00
2022-12-08T04:34:50.228Z,101395.16
2022-12-08T04:37:17.689Z,101390.00
2022-12-08T04:39:45.174Z,101382.22
2022-12-08T04:42:12.622Z,101376.19
2022-12-08T04:44:40.178Z,101375.34
2022-12-08T04:47:07.708Z,101370.19
2022-12-08T04:49:35.255Z,101365.00
2022-12-08T04:52:02.967Z,101364.09
2022-12-08T04:54:30.505Z,101366.78
2022-12-08T04:56:57.971Z,101360.69
2022-12-08T04:59:25.523Z,101359.84
2022-12-08T05:01:53.150Z,101349.34
2022-12-08T05:04:20.812Z,101349.38
2022-12-08T05:06:48.349Z,101343.28
2022-12-08T05:09:15.864Z,101338.09
2022-12-08T05:11:48.627Z,101324.22
2022-12-08T05:14:18.576Z,101315.53
2022-12-08T05:16:47.220Z,101309.53
2022-12-08T05:19:15.966Z,101313.94
2022-12-08T05:21:43.654Z,101315.63
2022-12-08T05:24:11.223Z,101323.56
2022-12-08T05:26:38.675Z,101320.94
2022-12-08T05:29:06.180Z,101317.47
2022-12-08T05:31:33.988Z,101320.09
2022-12-08T05:34:03.444Z,101312.25
2022-12-08T05:36:31.167Z,101312.16
2022-12-08T05:38:58.678Z,101310.38
2022-12-08T05:41:26.387Z,101300.69
2022-12-08T05:43:53.919Z,101298.06
2022-12-08T05:46:22.089Z,101302.38
2022-12-08T05:48:49.779Z,101305.91
2022-12-08T05:51:23.242Z,101312.09
2022-12-08T05:53:52.022Z,101312.16
2022-12-08T05:56:20.158Z,101319.25
2022-12-08T05:58:48.369Z,101311.44
2022-12-08T06:01:28.144Z,101300.19
2022-12-08T06:03:57.856Z,101293.28
2022-12-08T06:06:25.936Z,101299.44
2022-12-08T06:08:54.377Z,101304.75
2022-12-08T06:11:27.812Z,101305.59
2022-12-08T06:13:56.904Z,101302.19
2022-12-08T06:16:26.533Z,101301.34
2022-12-08T06:18:55.208Z,101305.69
2022-12-08T06:21:23.233Z,101300.53
2022-12-08T06:23:52.871Z,101299.66
2022-12-08T06:26:21.338Z,101298.81
2022-12-08T06:28:49.699Z,101299.72
2022-12-08T06:31:20.508Z,101297.09
2022-12-08T06:33:48.801Z,101296.25
2022-12-08T06:36:19.463Z,101291.00
2022-12-08T06:38:47.559Z,101298.03
2022-12-08T06:41:15.885Z,101304.19
2022-12-08T06:43:44.087Z,101288.50
2022-12-08T06:46:16.264Z,101287.63
2022-12-08T06:48:44.118Z,101293.78
2022-12-08T06:51:20.711Z,101291.19
2022-12-08T06:53:48.534Z,101299.88
2022-12-08T06:56:17.118Z,101299.88
2022-12-08T06:58:50.450Z,101301.69
2022-12-08T07:01:19.799Z,101300.00
2022-12-08T07:03:48.110Z,101291.34
2022-12-08T07:06:19.344Z,101294.00
2022-12-08T07:08:47.171Z,101279.22
2022-12-08T07:11:21.202Z,101274.91
2022-12-08T07:13:50.348Z,101280.09
2022-12-08T07:16:18.162Z,101288.00
2022-12-08T07:18:45.736Z,101286.34
2022-12-08T07:21:17.308Z,101282.91
2022-12-08T07:23:54.213Z,101281.22
2022-12-08T07:26:26.917Z,101279.50
2022-12-08T07:28:54.896Z,101281.25
2022-12-08T07:31:25.214Z,101265.56
2022-12-08T07:33:53.647Z,101264.69
2022-12-08T07:36:21.607Z,101266.44
2022-12-08T07:38:50.412Z,101273.47
2022-12-08T07:41:23.684Z,101274.41
2022-12-08T07:43:52.093Z,101273.56
2022-12-08T07:46:22.032Z,101286.63
2022-12-08T07:48:49.797Z,101275.31
2022-12-08T07:51:17.686Z,101277.03
2022-12-08T07:53:53.387Z,101277.03
2022-12-08T07:56:22.584Z,101271.00
2022-12-08T07:58:50.632Z,101274.50
2022-12-08T08:01:29.689Z,101276.38
2022-12-08T08:04:02.075Z,101269.53
2022-12-08T08:06:30.039Z,101264.50
2022-12-08T08:08:57.586Z,101266.25
2022-12-08T08:11:25.286Z,101262.69
2022-12-08T08:13:53.729Z,101263.59
2022-12-08T08:16:21.791Z,101267.06
2022-12-08T08:18:50.841Z,101275.75
2022-12-08T08:24:08.011Z,101297.56
2022-12-08T08:26:37.225Z,101300.19
2022-12-08T08:29:04.955Z,101301.00
2022-12-08T08:31:32.573Z,101290.59
2022-12-08T08:34:05.032Z,101292.28
2022-12-08T08:36:33.062Z,101288.75
2022-12-08T08:39:00.591Z,101287.84
2022-12-08T08:41:28.133Z,101282.63
2022-12-08T08:43:55.677Z,101279.13
2022-12-08T08:46:23.304Z,101285.22
2022-12-08T08:48:50.847Z,101286.97
2022-12-08T08:51:18.544Z,101286.91
2022-12-08T08:53:46.166Z,101285.09
2022-12-08T08:56:19.385Z,101281.56
2022-12-08T08:58:49.666Z,101280.69
2022-12-08T09:01:22.802Z,101277.13
2022-12-08T09:03:50.984Z,101273.56
2022-12-08T09:06:19.415Z,101277.81
2022-12-08T09:08:48.635Z,101278.66
2022-12-08T09:11:18.706Z,101279.44
2022-12-08T09:13:51.545Z,101281.13
2022-12-08T09:16:19.900Z,101279.28
2022-12-08T09:18:51.209Z,101277.38
2022-12-08T09:21:26.103Z,101287.63
2022-12-08T09:23:56.374Z,101285.66
2022-12-08T09:26:25.398Z,101276.63
2022-12-08T09:28:55.000Z,101273.72
2022-12-08T09:31:24.524Z,101279.50
2022-12-08T09:33:52.398Z,101276.72
2022-12-08T09:36:21.113Z,101276.56
2022-12-08T09:38:50.383Z,101285.25
2022-12-08T09:41:36.851Z,101285.25
2022-12-08T09:44:06.646Z,101277.34
2022-12-08T09:46:35.789Z,101278.94
2022-12-08T09:49:11.678Z,101279.78
2022-12-08T09:51:42.004Z,101263.22
2022-12-08T09:54:13.793Z,101264.13
2022-12-08T09:56:41.806Z,101258.91
2022-12-08T09:59:09.258Z,101260.59
2022-12-08T10:01:42.095Z,101255.28
2022-12-08T10:04:24.116Z,101262.19
2022-12-08T10:07:17.017Z,101263.78
2022-12-08T10:09:58.113Z,101262.81
2022-12-08T10:12:43.263Z,101259.13
2022-12-08T10:15:16.882Z,101257.19
2022-12-08T10:17:49.149Z,101260.38
2022-12-08T10:20:22.576Z,101258.09
2022-12-08T10:23:06.547Z,101253.22
2022-12-08T10:25:41.426Z,101257.16
2022-12-08T10:28:11.103Z,101261.28
2022-12-08T10:30:38.936Z,101262.00
2022-12-08T10:33:15.341Z,101253.03
2022-12-08T10:35:58.398Z,101251.66
2022-12-08T10:38:37.416Z,101255.16
2022-12-08T10:41:14.672Z,101259.47
2022-12-08T10:43:53.444Z,101253.00
2022-12-08T10:46:27.075Z,101250.38
2022-12-08T10:49:06.862Z,101253.03
2022-12-08T10:51:34.519Z,101260.41
2022-12-08T10:54:03.377Z,101248.56
2022-12-08T10:56:31.544Z,101248.22
2022-12-08T10:59:07.160Z,101248.41
2022-12-08T11:01:39.386Z,101252.72
2022-12-08T11:04:21.142Z,101242.78
2022-12-08T11:06:50.728Z,101241.16
2022-12-08T11:09:18.625Z,101236.97
2022-12-08T11:11:50.606Z,101229.78
2022-12-08T11:14:27.766Z,101231.91
2022-12-08T11:17:07.396Z,101236.16
2022-12-08T11:19:39.485Z,101231.09
2022-12-08T11:22:26.899Z,101231.41
2022-12-08T11:25:27.142Z,101230.13
2022-12-08T11:28:00.892Z,101224.91
2022-12-08T11:30:36.918Z,101227.16
2022-12-08T11:33:23.956Z,101224.97
2022-12-08T11:36:12.034Z,101219.31
2022-12-08T11:38:47.846Z,101210.88
2022-12-08T11:41:19.375Z,101205.16
2022-12-08T11:44:02.233Z,101205.75
2022-12-08T11:46:43.354Z,101193.94
2022-12-08T11:49:13.802Z,101197.09
2022-12-08T11:51:48.317Z,101191.25
2022-12-08T11:54:26.489Z,101187.59
2022-12-08T11:57:00.870Z,101198.56
2022-12-08T11:59:34.774Z,101187.81
2022-12-08T12:02:04.645Z,101189.25
2022-12-08T12:04:50.057Z,101189.25
2022-12-08T12:07:37.489Z,101185.44
2022-12-08T12:10:39.119Z,101174.78
2022-12-08T12:13:30.700Z,101185.34
2022-12-08T12:16:17.436Z,101182.66
2022-12-08T12:18:53.247Z,101189.03
2022-12-08T12:21:29.659Z,101187.28
2022-12-08T12:24:10.492Z,101179.75
2022-12-08T12:26:49.749Z,101178.19
2022-12-08T12:29:20.260Z,101174.47
2022-12-08T12:40:24.733Z,101168.56
2022-12-08T12:42:54.984Z,101169.28
2022-12-08T12:45:22.482Z,101162.00
2022-12-08T12:47:56.203Z,101155.69
2022-12-08T12:50:33.599Z,101153.28
2022-12-08T12:53:15.608Z,101155.34
2022-12-08T12:55:46.205Z,101150.84
2022-12-08T12:58:36.567Z,101155.06
2022-12-08T13:01:12.924Z,101155.94
2022-12-08T13:03:44.174Z,101154.72
2022-12-08T13:06:14.976Z,101142.22
2022-12-08T13:09:03.707Z,101149.75
2022-12-08T13:11:48.071Z,101152.56
2022-12-08T13:14:31.699Z,101146.47
2022-12-08T13:17:01.677Z,101152.66
2022-12-08T13:23:36.587Z,101144.75
2022-12-08T13:26:15.088Z,101140.75
2022-12-08T13:29:08.735Z,101143.78
2022-12-08T13:40:27.785Z,101132.25
2022-12-08T13:43:10.670Z,101138.72
2022-12-08T13:46:41.961Z,101140.50
2022-12-08T13:57:32.754Z,101140.41
2022-12-08T14:00:14.803Z,101137.13
2022-12-08T14:02:47.771Z,101143.31
2022-12-08T14:05:23.450Z,101139.50
2022-12-08T14:07:57.595Z,101134.03
2022-12-08T14:10:32.125Z,101137.81
2022-12-08T14:13:06.473Z,101129.59
2022-12-08T14:15:38.088Z,101123.66
2022-12-08T14:18:21.204Z,101124.38
2022-12-08T14:21:22.087Z,101117.09
2022-12-08T14:23:49.827Z,101119.91
2022-12-08T14:26:18.116Z,101113.72
2022-12-08T14:28:45.946Z,101124.47
2022-12-08T14:31:14.683Z,101118.28
2022-12-08T14:33:43.146Z,101122.78
2022-12-08T14:36:14.682Z,101128.91
2022-12-08T14:38:42.405Z,101128.44
2022-12-08T14:41:12.056Z,101128.88
2022-12-08T14:43:43.195Z,101120.47
2022-12-08T14:46:22.479Z,101127.81
2022-12-08T14:48:50.340Z,101134.44
2022-12-08T14:51:25.320Z,101133.22
2022-12-08T14:54:00.049Z,101126.75
2022-12-08T14:56:41.891Z,101125.66
2022-12-08T14:59:09.518Z,101126.09
2022-12-08T15:01:42.241Z,101126.50
2022-12-08T15:04:13.021Z,101128.56
2022-12-08T15:06:59.833Z,101126.97
2022-12-08T15:09:30.218Z,101121.81
2022-12-08T15:12:02.917Z,101127.09
2022-12-08T15:14:36.344Z,101127.22
2022-12-08T15:17:24.521Z,101126.25
2022-12-08T15:19:57.174Z,101122.88
2022-12-08T15:22:26.660Z,101117.53
2022-12-08T15:24:54.668Z,101127.06
2022-12-08T15:27:25.052Z,101123.28
2022-12-08T15:34:37.657Z,101117.84
2022-12-08T15:37:52.084Z,101116.69
2022-12-08T15:40:23.048Z,101123.41
2022-12-08T15:42:50.676Z,101122.97
2022-12-08T15:45:18.871Z,101122.56
2022-12-08T15:47:46.524Z,101119.59
2022-12-08T15:50:22.375Z,101125.28
2022-12-08T15:52:50.949Z,101129.28
2022-12-08T15:55:20.693Z,101122.53
2022-12-08T16:00:57.952Z,101133.78
2022-12-08T16:04:09.343Z,101133.22
2022-12-08T16:09:17.647Z,101127.81
2022-12-08T16:12:07.115Z,101125.53
2022-12-08T16:17:24.383Z,101119.94
2022-12-08T16:19:51.959Z,101130.72
2022-12-08T16:25:21.135Z,101129.50
2022-12-08T16:28:12.389Z,101123.53
2022-12-08T16:30:45.519Z,101131.69
2022-12-08T16:33:13.227Z,101131.78
2022-12-08T16:44:48.037Z,101124.44
2022-12-08T16:47:15.723Z,101121.03
2022-12-08T16:49:43.272Z,101121.19
2022-12-08T16:52:11.059Z,101120.41
2022-12-08T16:54:50.566Z,101120.59
2022-12-08T16:57:21.074Z,101126.97
2022-12-08T16:59:48.653Z,101125.38
2022-12-08T17:02:16.666Z,101131.63
2022-12-08T17:04:44.433Z,101126.50
2022-12-08T17:07:12.092Z,101122.19
2022-12-08T17:09:39.700Z,101119.69
2022-12-08T17:12:07.432Z,101122.44
2022-12-08T17:14:35.744Z,101128.66
2022-12-08T17:17:03.895Z,101123.41
2022-12-08T17:19:32.033Z,101130.44
2022-12-08T17:21:59.634Z,101125.22
2022-12-08T17:24:29.139Z,101127.88
2022-12-08T17:26:58.428Z,101129.72
2022-12-08T17:29:25.942Z,101125.38
2022-12-08T17:31:53.647Z,101123.66
2022-12-08T17:34:21.753Z,101124.56
2022-12-08T17:36:49.384Z,101132.38
2022-12-08T17:39:18.956Z,101128.91
2022-12-08T17:41:47.426Z,101130.66
2022-12-08T17:44:19.234Z,101128.00
2022-12-08T17:46:52.506Z,101122.75
2022-12-08T17:49:24.985Z,101133.19
2022-12-08T17:51:55.527Z,101123.66
2022-12-08T17:54:23.489Z,101118.47
2022-12-08T17:56:51.515Z,101118.50
2022-12-08T17:59:19.143Z,101115.03
2022-12-08T18:01:46.952Z,101112.41
2022-12-08T18:04:14.851Z,101110.69
2022-12-08T18:06:42.424Z,101101.97
2022-12-08T18:09:10.099Z,101105.47
2022-12-08T18:11:37.687Z,101098.72
2022-12-08T18:14:10.277Z,101104.44
2022-12-08T18:16:40.824Z,101100.56
2022-12-08T18:19:09.711Z,101104.41
2022-12-08T18:21:38.107Z,101111.72
2022-12-08T18:24:37.944Z,101113.59
2022-12-08T18:27:05.527Z,101106.00
2022-12-08T18:29:33.534Z,101110.63
2022-12-08T18:32:16.167Z,101110.72
2022-12-08T18:34:44.296Z,101113.34
2022-12-08T18:37:11.823Z,101111.66
2022-12-08T18:39:39.703Z,101114.28
2022-12-08T18:42:23.042Z,101109.88
2022-12-08T18:45:07.506Z,101109.88
2022-12-08T18:47:39.730Z,101101.19
2022-12-08T18:50:09.256Z,101109.13
2022-12-08T18:52:36.894Z,101109.25
2022-12-08T18:55:06.713Z,101098.91
2022-12-08T18:57:38.422Z,101102.50
2022-12-08T19:00:08.427Z,101098.22
2022-12-08T19:02:38.532Z,101101.75
2022-12-08T19:05:08.142Z,101097.47
2022-12-08T19:07:36.034Z,101107.44
2022-12-08T19:10:05.090Z,101099.81
2022-12-08T19:12:33.026Z,101094.81
2022-12-08T19:15:00.593Z,101099.31
2022-12-08T19:17:29.786Z,101100.06
2022-12-08T19:19:57.580Z,101111.41
2022-12-08T19:22:25.214Z,101105.25
2022-12-08T19:24:52.828Z,101100.81
2022-12-08T19:27:20.480Z,101096.34
2022-12-08T19:29:48.088Z,101103.44
2022-12-08T19:32:15.679Z,101105.13
2022-12-08T19:34:43.265Z,101101.66
2022-12-08T19:37:12.687Z,101098.19
2022-12-08T19:39:59.673Z,101100.75
2022-12-08T19:42:45.879Z,101101.66
2022-12-08T19:45:18.556Z,101101.78
2022-12-08T19:48:43.005Z,101095.78
2022-12-08T19:56:18.590Z,101096.28
2022-12-08T19:58:46.271Z,101090.19
2022-12-08T20:01:14.068Z,101093.66
2022-12-08T20:03:41.810Z,101092.75
2022-12-08T20:06:18.012Z,101084.03
2022-12-08T20:08:50.369Z,101095.44
2022-12-08T20:11:18.482Z,101099.00
2022-12-08T20:13:47.793Z,101095.53
2022-12-08T20:16:16.557Z,101091.16
2022-12-08T20:18:44.367Z,101091.22
2022-12-08T20:21:12.519Z,101088.69
2022-12-08T20:23:41.178Z,101088.72
2022-12-08T20:26:12.463Z,101085.31
2022-12-08T20:28:40.214Z,101087.06
2022-12-08T20:31:08.017Z,101077.38
2022-12-08T20:33:37.743Z,101080.94
2022-12-08T20:36:07.532Z,101075.78
2022-12-08T20:38:35.197Z,101069.72
2022-12-08T20:41:03.198Z,101068.16
2022-12-08T20:43:30.818Z,101067.38
2022-12-08T20:45:58.443Z,101069.94
2022-12-08T20:52:14.535Z,101061.31
2022-12-08T20:54:42.221Z,101065.69
2022-12-08T20:57:09.877Z,101065.66
2022-12-08T20:59:37.577Z,101073.47
2022-12-08T21:02:05.375Z,101067.31
2022-12-08T21:04:33.201Z,101062.06
2022-12-08T21:07:00.957Z,101059.41
2022-12-08T21:09:28.910Z,101058.44
2022-12-08T21:11:56.686Z,101063.63
2022-12-08T21:14:24.378Z,101069.72
2022-12-08T21:16:54.633Z,101062.69
2022-12-08T21:19:22.726Z,101055.72
2022-12-08T21:21:51.008Z,101057.31
2022-12-08T21:24:19.378Z,101055.47
2022-12-08T21:26:47.106Z,101056.28
2022-12-08T21:29:14.914Z,101057.13
2022-12-08T21:31:42.673Z,101058.72
2022-12-08T21:34:11.504Z,101057.75
2022-12-08T21:36:39.181Z,101062.09
2022-12-08T21:39:12.783Z,101062.91
2022-12-08T21:41:59.609Z,101061.97
2022-12-08T21:44:27.493Z,101059.41
2022-12-08T21:46:55.167Z,101050.78
2022-12-08T21:49:22.968Z,101054.31
2022-12-08T21:51:50.985Z,101050.84
2022-12-08T21:54:19.583Z,101043.06
2022-12-08T21:56:49.097Z,101041.38
2022-12-08T21:59:18.462Z,101036.16
2022-12-08T22:01:46.759Z,101037.94
2022-12-08T22:04:18.259Z,101029.22
2022-12-08T22:06:46.063Z,101025.75
2022-12-08T22:09:15.258Z,101030.91
2022-12-08T22:11:44.161Z,101024.78
2022-12-08T22:14:14.981Z,101023.03
2022-12-08T22:16:44.364Z,101026.59
2022-12-08T22:19:12.698Z,101024.00
2022-12-08T22:21:40.458Z,101020.50
2022-12-08T22:24:08.281Z,101019.66
2022-12-08T22:26:36.042Z,101015.38
2022-12-08T22:29:03.846Z,101011.91
2022-12-08T22:31:31.852Z,101012.66
2022-12-08T22:34:00.180Z,101013.38
2022-12-08T22:36:28.765Z,101004.53
2022-12-08T22:38:56.481Z,101011.31
2022-12-08T22:41:24.480Z,101011.16
2022-12-08T22:43:52.317Z,101010.22
2022-12-08T22:46:23.435Z,101008.47
2022-12-08T22:48:54.128Z,100998.81
2022-12-08T22:51:21.959Z,101003.19
2022-12-08T22:53:50.162Z,101003.06
2022-12-08T22:56:19.179Z,101007.41
2022-12-08T22:58:47.820Z,100996.91
2022-12-08T23:01:26.693Z,101001.22
2022-12-08T23:03:55.025Z,100995.13
2022-12-08T23:06:23.540Z,100989.03
2022-12-08T23:08:52.322Z,100989.88
2022-12-08T23:11:22.285Z,100982.13
2022-12-08T23:13:49.947Z,100979.69
2022-12-08T23:16:17.950Z,100988.50
2022-12-08T23:18:47.329Z,100981.69
2022-12-08T23:21:18.606Z,100984.41
2022-12-08T23:23:46.898Z,100982.81
2022-12-08T23:26:23.787Z,100982.00
2022-12-08T23:28:51.893Z,100986.50
2022-12-08T23:31:20.663Z,100997.94
2022-12-08T23:33:48.852Z,100995.50
2022-12-08T23:36:17.880Z,100988.53
2022-12-08T23:38:46.244Z,100987.66
2022-12-08T23:41:15.974Z,100991.16
2022-12-08T23:43:46.814Z,100987.75
2022-12-08T23:46:16.982Z,100987.75
2022-12-08T23:48:44.781Z,100999.13
2022-12-08T23:51:13.107Z,100978.31
2022-12-08T23:53:41.563Z,100976.66
2022-12-08T23:56:12.212Z,100969.84
2022-12-08T23:58:40.690Z,100961.50
